sensor_id;sensor_type;location;lat;lon;timestamp;P1;durP1;ratioP1;P2;durP2;ratioP2
21326;SDS011;10822;51.532;6.770;2023-02-28T00:01:13;7.25;;;3.50;;
21326;SDS011;10822;51.532;6.770;2023-02-28T00:03:40;4.93;;;3.50;;
21326;SDS011;10822;51.532;6.770;2023-02-28T00:06:06;8.45;;;3.33;;
21326;SDS011;10822;51.532;6.770;2023-02-28T00:08:32;8.68;;;3.78;;
21326;SDS011;10822;51.532;6.770;2023-02-28T00:11:02;5.95;;;3.72;;
21326;SDS011;10822;51.532;6.770;2023-02-28T00:13:28;6.63;;;3.70;;
21326;SDS011;10822;51.532;6.770;2023-02-28T00:15:58;6.63;;;3.95;;
21326;SDS011;10822;51.532;6.770;2023-02-28T00:18:24;9.02;;;4.13;;
21326;SDS011;10822;51.532;6.770;2023-02-28T00:20:50;6.78;;;3.58;;
21326;SDS011;10822;51.532;6.770;2023-02-28T00:23:16;5.40;;;3.30;;
21326;SDS011;10822;51.532;6.770;2023-02-28T00:25:42;6.47;;;3.33;;
21326;SDS011;10822;51.532;6.770;2023-02-28T00:28:08;5.93;;;3.63;;
21326;SDS011;10822;51.532;6.770;2023-02-28T00:30:34;5.97;;;3.45;;
21326;SDS011;10822;51.532;6.770;2023-02-28T00:33:00;8.25;;;3.30;;
21326;SDS011;10822;51.532;6.770;2023-02-28T00:35:26;9.05;;;3.75;;
21326;SDS011;10822;51.532;6.770;2023-02-28T00:37:52;6.65;;;3.80;;
21326;SDS011;10822;51.532;6.770;2023-02-28T00:40:18;7.15;;;3.92;;
21326;SDS011;10822;51.532;6.770;2023-02-28T00:42:44;7.63;;;3.97;;
21326;SDS011;10822;51.532;6.770;2023-02-28T00:45:10;5.85;;;3.53;;
21326;SDS011;10822;51.532;6.770;2023-02-28T00:47:36;6.13;;;3.28;;
21326;SDS011;10822;51.532;6.770;2023-02-28T00:50:02;6.50;;;3.40;;
21326;SDS011;10822;51.532;6.770;2023-02-28T00:52:28;5.57;;;3.80;;
21326;SDS011;10822;51.532;6.770;2023-02-28T00:54:54;3.60;;;3.03;;
21326;SDS011;10822;51.532;6.770;2023-02-28T00:57:20;6.18;;;3.55;;
21326;SDS011;10822;51.532;6.770;2023-02-28T00:59:46;5.95;;;3.33;;
21326;SDS011;10822;51.532;6.770;2023-02-28T01:02:12;4.65;;;3.25;;
21326;SDS011;10822;51.532;6.770;2023-02-28T01:04:38;4.47;;;3.30;;
21326;SDS011;10822;51.532;6.770;2023-02-28T01:07:04;4.93;;;3.60;;
21326;SDS011;10822;51.532;6.770;2023-02-28T01:09:30;6.25;;;3.80;;
21326;SDS011;10822;51.532;6.770;2023-02-28T01:11:56;4.68;;;3.33;;
21326;SDS011;10822;51.532;6.770;2023-02-28T01:14:22;7.47;;;3.80;;
21326;SDS011;10822;51.532;6.770;2023-02-28T01:16:48;5.18;;;3.55;;
21326;SDS011;10822;51.532;6.770;2023-02-28T01:19:14;5.93;;;3.60;;
21326;SDS011;10822;51.532;6.770;2023-02-28T01:21:40;6.88;;;3.97;;
21326;SDS011;10822;51.532;6.770;2023-02-28T01:24:06;7.38;;;3.45;;
21326;SDS011;10822;51.532;6.770;2023-02-28T01:26:32;6.65;;;3.70;;
21326;SDS011;10822;51.532;6.770;2023-02-28T01:28:58;6.40;;;3.88;;
21326;SDS011;10822;51.532;6.770;2023-02-28T01:31:24;5.68;;;3.70;;
21326;SDS011;10822;51.532;6.770;2023-02-28T01:33:50;5.90;;;3.80;;
21326;SDS011;10822;51.532;6.770;2023-02-28T01:36:18;5.65;;;3.33;;
21326;SDS011;10822;51.532;6.770;2023-02-28T01:38:44;5.43;;;3.92;;
21326;SDS011;10822;51.532;6.770;2023-02-28T01:41:13;5.90;;;3.28;;
21326;SDS011;10822;51.532;6.770;2023-02-28T01:46:10;6.80;;;4.22;;
21326;SDS011;10822;51.532;6.770;2023-02-28T01:48:36;7.55;;;4.25;;
21326;SDS011;10822;51.532;6.770;2023-02-28T01:51:05;6.90;;;3.88;;
21326;SDS011;10822;51.532;6.770;2023-02-28T01:56:00;5.28;;;3.20;;
21326;SDS011;10822;51.532;6.770;2023-02-28T01:58:28;4.97;;;3.30;;
21326;SDS011;10822;51.532;6.770;2023-02-28T02:00:54;6.88;;;3.72;;
21326;SDS011;10822;51.532;6.770;2023-02-28T02:03:22;7.35;;;3.58;;
21326;SDS011;10822;51.532;6.770;2023-02-28T02:05:49;6.05;;;3.55;;
21326;SDS011;10822;51.532;6.770;2023-02-28T02:08:25;5.35;;;3.47;;
21326;SDS011;10822;51.532;6.770;2023-02-28T02:10:52;5.32;;;3.10;;
21326;SDS011;10822;51.532;6.770;2023-02-28T02:15:53;8.88;;;4.10;;
21326;SDS011;10822;51.532;6.770;2023-02-28T02:18:26;5.05;;;3.20;;
21326;SDS011;10822;51.532;6.770;2023-02-28T02:23:48;5.47;;;3.08;;
21326;SDS011;10822;51.532;6.770;2023-02-28T02:29:33;4.88;;;3.10;;
21326;SDS011;10822;51.532;6.770;2023-02-28T02:32:07;6.45;;;3.45;;
21326;SDS011;10822;51.532;6.770;2023-02-28T02:34:45;5.90;;;3.53;;
21326;SDS011;10822;51.532;6.770;2023-02-28T02:37:15;5.50;;;3.22;;
21326;SDS011;10822;51.532;6.770;2023-02-28T02:40:08;5.07;;;3.45;;
21326;SDS011;10822;51.532;6.770;2023-02-28T02:42:44;5.75;;;3.35;;
21326;SDS011;10822;51.532;6.770;2023-02-28T02:47:37;7.32;;;3.30;;
21326;SDS011;10822;51.532;6.770;2023-02-28T02:50:05;6.50;;;3.40;;
21326;SDS011;10822;51.532;6.770;2023-02-28T02:52:42;5.10;;;3.20;;
21326;SDS011;10822;51.532;6.770;2023-02-28T02:55:10;5.55;;;3.40;;
21326;SDS011;10822;51.532;6.770;2023-02-28T02:57:42;5.13;;;3.55;;
21326;SDS011;10822;51.532;6.770;2023-02-28T03:00:09;5.00;;;3.47;;
21326;SDS011;10822;51.532;6.770;2023-02-28T03:02:36;5.88;;;3.17;;
21326;SDS011;10822;51.532;6.770;2023-02-28T03:05:04;7.93;;;3.70;;
21326;SDS011;10822;51.532;6.770;2023-02-28T03:07:32;7.18;;;3.80;;
21326;SDS011;10822;51.532;6.770;2023-02-28T03:09:58;6.25;;;3.90;;
21326;SDS011;10822;51.532;6.770;2023-02-28T03:12:27;6.75;;;3.85;;
21326;SDS011;10822;51.532;6.770;2023-02-28T03:14:56;5.65;;;3.40;;
21326;SDS011;10822;51.532;6.770;2023-02-28T03:20:03;5.05;;;3.10;;
21326;SDS011;10822;51.532;6.770;2023-02-28T03:28:07;5.38;;;3.00;;
21326;SDS011;10822;51.532;6.770;2023-02-28T03:30:49;5.38;;;3.33;;
21326;SDS011;10822;51.532;6.770;2023-02-28T03:33:20;7.80;;;3.22;;
21326;SDS011;10822;51.532;6.770;2023-02-28T03:35:49;3.88;;;2.83;;
21326;SDS011;10822;51.532;6.770;2023-02-28T03:40:44;6.95;;;3.22;;
21326;SDS011;10822;51.532;6.770;2023-02-28T03:43:13;5.65;;;3.38;;
21326;SDS011;10822;51.532;6.770;2023-02-28T03:45:41;5.28;;;3.50;;
21326;SDS011;10822;51.532;6.770;2023-02-28T03:48:17;5.78;;;3.55;;
21326;SDS011;10822;51.532;6.770;2023-02-28T03:50:45;6.18;;;3.20;;
21326;SDS011;10822;51.532;6.770;2023-02-28T03:53:18;5.57;;;3.20;;
21326;SDS011;10822;51.532;6.770;2023-02-28T03:55:46;4.47;;;3.08;;
21326;SDS011;10822;51.532;6.770;2023-02-28T04:00:40;7.93;;;2.78;;
21326;SDS011;10822;51.532;6.770;2023-02-28T04:03:09;6.43;;;3.78;;
21326;SDS011;10822;51.532;6.770;2023-02-28T04:05:43;7.13;;;3.70;;
21326;SDS011;10822;51.532;6.770;2023-02-28T04:08:11;6.75;;;3.70;;
21326;SDS011;10822;51.532;6.770;2023-02-28T04:10:37;6.25;;;3.10;;
21326;SDS011;10822;51.532;6.770;2023-02-28T04:13:03;7.68;;;3.28;;
21326;SDS011;10822;51.532;6.770;2023-02-28T04:15:29;6.18;;;3.15;;
21326;SDS011;10822;51.532;6.770;2023-02-28T04:17:56;4.63;;;2.88;;
21326;SDS011;10822;51.532;6.770;2023-02-28T04:20:22;4.55;;;2.60;;
21326;SDS011;10822;51.532;6.770;2023-02-28T04:22:48;4.43;;;3.00;;
21326;SDS011;10822;51.532;6.770;2023-02-28T04:25:14;4.95;;;2.75;;
21326;SDS011;10822;51.532;6.770;2023-02-28T04:27:40;6.68;;;2.88;;
21326;SDS011;10822;51.532;6.770;2023-02-28T04:30:07;4.32;;;2.97;;
21326;SDS011;10822;51.532;6.770;2023-02-28T04:32:33;5.68;;;3.03;;
21326;SDS011;10822;51.532;6.770;2023-02-28T04:34:59;4.13;;;2.50;;
21326;SDS011;10822;51.532;6.770;2023-02-28T04:37:25;5.05;;;2.97;;
21326;SDS011;10822;51.532;6.770;2023-02-28T04:39:53;4.28;;;2.65;;
21326;SDS011;10822;51.532;6.770;2023-02-28T04:42:19;5.53;;;2.80;;
21326;SDS011;10822;51.532;6.770;2023-02-28T04:44:45;3.67;;;2.47;;
21326;SDS011;10822;51.532;6.770;2023-02-28T04:47:12;5.32;;;2.70;;
21326;SDS011;10822;51.532;6.770;2023-02-28T04:49:38;3.30;;;2.40;;
21326;SDS011;10822;51.532;6.770;2023-02-28T04:52:06;4.82;;;2.97;;
21326;SDS011;10822;51.532;6.770;2023-02-28T04:54:32;5.18;;;3.00;;
21326;SDS011;10822;51.532;6.770;2023-02-28T04:56:58;4.57;;;2.75;;
21326;SDS011;10822;51.532;6.770;2023-02-28T04:59:24;5.45;;;2.40;;
21326;SDS011;10822;51.532;6.770;2023-02-28T05:01:50;3.83;;;2.80;;
21326;SDS011;10822;51.532;6.770;2023-02-28T05:04:16;4.57;;;2.83;;
21326;SDS011;10822;51.532;6.770;2023-02-28T05:06:42;6.30;;;2.78;;
21326;SDS011;10822;51.532;6.770;2023-02-28T05:09:08;4.53;;;2.53;;
21326;SDS011;10822;51.532;6.770;2023-02-28T05:11:36;5.53;;;2.85;;
21326;SDS011;10822;51.532;6.770;2023-02-28T05:14:04;4.38;;;2.63;;
21326;SDS011;10822;51.532;6.770;2023-02-28T05:16:30;6.28;;;3.22;;
21326;SDS011;10822;51.532;6.770;2023-02-28T05:18:56;5.60;;;2.85;;
21326;SDS011;10822;51.532;6.770;2023-02-28T05:23:49;5.43;;;2.78;;
21326;SDS011;10822;51.532;6.770;2023-02-28T05:26:15;5.55;;;3.17;;
21326;SDS011;10822;51.532;6.770;2023-02-28T05:28:41;6.85;;;3.25;;
21326;SDS011;10822;51.532;6.770;2023-02-28T05:31:08;6.30;;;3.30;;
21326;SDS011;10822;51.532;6.770;2023-02-28T05:33:35;6.75;;;3.30;;
21326;SDS011;10822;51.532;6.770;2023-02-28T05:36:01;7.70;;;3.05;;
21326;SDS011;10822;51.532;6.770;2023-02-28T05:38:27;6.72;;;3.50;;
21326;SDS011;10822;51.532;6.770;2023-02-28T05:40:53;6.45;;;3.20;;
21326;SDS011;10822;51.532;6.770;2023-02-28T05:43:19;5.65;;;3.15;;
21326;SDS011;10822;51.532;6.770;2023-02-28T05:45:45;5.38;;;3.30;;
21326;SDS011;10822;51.532;6.770;2023-02-28T05:48:11;4.53;;;2.75;;
21326;SDS011;10822;51.532;6.770;2023-02-28T05:50:37;5.30;;;3.15;;
21326;SDS011;10822;51.532;6.770;2023-02-28T05:53:03;6.63;;;3.00;;
21326;SDS011;10822;51.532;6.770;2023-02-28T05:55:29;3.85;;;2.45;;
21326;SDS011;10822;51.532;6.770;2023-02-28T05:57:55;4.97;;;3.03;;
21326;SDS011;10822;51.532;6.770;2023-02-28T06:00:21;4.32;;;2.70;;
21326;SDS011;10822;51.532;6.770;2023-02-28T06:02:47;5.45;;;3.25;;
21326;SDS011;10822;51.532;6.770;2023-02-28T06:05:14;6.15;;;3.17;;
21326;SDS011;10822;51.532;6.770;2023-02-28T06:07:41;4.55;;;2.35;;
21326;SDS011;10822;51.532;6.770;2023-02-28T06:10:07;4.57;;;2.90;;
21326;SDS011;10822;51.532;6.770;2023-02-28T06:12:33;4.78;;;2.75;;
21326;SDS011;10822;51.532;6.770;2023-02-28T06:14:59;6.25;;;2.40;;
21326;SDS011;10822;51.532;6.770;2023-02-28T06:17:25;3.50;;;2.20;;
21326;SDS011;10822;51.532;6.770;2023-02-28T06:19:51;3.88;;;2.60;;
21326;SDS011;10822;51.532;6.770;2023-02-28T06:22:17;4.70;;;2.90;;
21326;SDS011;10822;51.532;6.770;2023-02-28T06:24:43;3.90;;;2.72;;
21326;SDS011;10822;51.532;6.770;2023-02-28T06:27:09;3.67;;;2.50;;
21326;SDS011;10822;51.532;6.770;2023-02-28T06:29:35;6.90;;;2.80;;
21326;SDS011;10822;51.532;6.770;2023-02-28T06:32:05;8.38;;;2.80;;
21326;SDS011;10822;51.532;6.770;2023-02-28T06:34:31;7.63;;;3.35;;
21326;SDS011;10822;51.532;6.770;2023-02-28T06:36:58;6.00;;;3.25;;
21326;SDS011;10822;51.532;6.770;2023-02-28T06:39:27;5.55;;;3.10;;
21326;SDS011;10822;51.532;6.770;2023-02-28T06:41:53;5.93;;;3.28;;
21326;SDS011;10822;51.532;6.770;2023-02-28T06:44:19;6.82;;;3.40;;
21326;SDS011;10822;51.532;6.770;2023-02-28T06:46:45;7.28;;;3.67;;
21326;SDS011;10822;51.532;6.770;2023-02-28T06:49:11;7.82;;;3.50;;
21326;SDS011;10822;51.532;6.770;2023-02-28T06:51:38;5.97;;;3.10;;
21326;SDS011;10822;51.532;6.770;2023-02-28T06:54:06;7.07;;;3.58;;
21326;SDS011;10822;51.532;6.770;2023-02-28T06:56:34;7.22;;;3.13;;
21326;SDS011;10822;51.532;6.770;2023-02-28T06:59:00;5.82;;;3.10;;
21326;SDS011;10822;51.532;6.770;2023-02-28T07:01:26;5.25;;;3.30;;
21326;SDS011;10822;51.532;6.770;2023-02-28T07:03:53;7.10;;;3.55;;
21326;SDS011;10822;51.532;6.770;2023-02-28T07:06:19;4.97;;;2.75;;
21326;SDS011;10822;51.532;6.770;2023-02-28T07:08:47;8.32;;;3.50;;
21326;SDS011;10822;51.532;6.770;2023-02-28T07:11:13;6.25;;;3.33;;
21326;SDS011;10822;51.532;6.770;2023-02-28T07:13:39;8.45;;;3.50;;
21326;SDS011;10822;51.532;6.770;2023-02-28T07:16:07;6.03;;;3.83;;
21326;SDS011;10822;51.532;6.770;2023-02-28T07:18:34;8.73;;;3.97;;
21326;SDS011;10822;51.532;6.770;2023-02-28T07:21:03;6.00;;;3.40;;
21326;SDS011;10822;51.532;6.770;2023-02-28T07:23:29;5.63;;;3.40;;
21326;SDS011;10822;51.532;6.770;2023-02-28T07:25:55;7.25;;;3.50;;
21326;SDS011;10822;51.532;6.770;2023-02-28T07:28:21;5.93;;;3.00;;
21326;SDS011;10822;51.532;6.770;2023-02-28T07:30:47;3.90;;;3.08;;
21326;SDS011;10822;51.532;6.770;2023-02-28T07:33:13;7.45;;;3.20;;
21326;SDS011;10822;51.532;6.770;2023-02-28T07:35:39;6.07;;;2.72;;
21326;SDS011;10822;51.532;6.770;2023-02-28T07:38:05;4.50;;;2.58;;
21326;SDS011;10822;51.532;6.770;2023-02-28T07:40:35;4.40;;;2.55;;
21326;SDS011;10822;51.532;6.770;2023-02-28T07:43:02;3.10;;;2.33;;
21326;SDS011;10822;51.532;6.770;2023-02-28T07:45:28;4.40;;;2.65;;
21326;SDS011;10822;51.532;6.770;2023-02-28T07:47:54;4.25;;;2.33;;
21326;SDS011;10822;51.532;6.770;2023-02-28T07:50:20;3.80;;;2.17;;
21326;SDS011;10822;51.532;6.770;2023-02-28T07:52:46;4.72;;;2.33;;
21326;SDS011;10822;51.532;6.770;2023-02-28T07:55:12;4.45;;;2.30;;
21326;SDS011;10822;51.532;6.770;2023-02-28T07:57:39;4.95;;;2.53;;
21326;SDS011;10822;51.532;6.770;2023-02-28T08:00:06;6.15;;;2.72;;
21326;SDS011;10822;51.532;6.770;2023-02-28T08:02:34;3.65;;;2.33;;
21326;SDS011;10822;51.532;6.770;2023-02-28T08:05:00;5.90;;;2.40;;
21326;SDS011;10822;51.532;6.770;2023-02-28T08:07:26;4.30;;;2.47;;
21326;SDS011;10822;51.532;6.770;2023-02-28T08:09:52;4.05;;;2.67;;
21326;SDS011;10822;51.532;6.770;2023-02-28T08:12:18;4.70;;;2.53;;
21326;SDS011;10822;51.532;6.770;2023-02-28T08:14:44;4.70;;;2.80;;
21326;SDS011;10822;51.532;6.770;2023-02-28T08:17:11;4.55;;;2.58;;
21326;SDS011;10822;51.532;6.770;2023-02-28T08:19:37;4.25;;;2.33;;
21326;SDS011;10822;51.532;6.770;2023-02-28T08:22:03;3.13;;;2.17;;
21326;SDS011;10822;51.532;6.770;2023-02-28T08:24:29;2.53;;;2.33;;
21326;SDS011;10822;51.532;6.770;2023-02-28T08:26:55;4.63;;;2.50;;
21326;SDS011;10822;51.532;6.770;2023-02-28T08:29:21;5.15;;;2.70;;
21326;SDS011;10822;51.532;6.770;2023-02-28T08:31:47;6.57;;;2.88;;
21326;SDS011;10822;51.532;6.770;2023-02-28T08:34:14;3.75;;;2.58;;
21326;SDS011;10822;51.532;6.770;2023-02-28T08:36:41;4.78;;;2.60;;
21326;SDS011;10822;51.532;6.770;2023-02-28T08:39:09;3.00;;;2.45;;
21326;SDS011;10822;51.532;6.770;2023-02-28T08:41:35;4.07;;;2.60;;
21326;SDS011;10822;51.532;6.770;2023-02-28T08:44:02;3.33;;;2.45;;
21326;SDS011;10822;51.532;6.770;2023-02-28T08:46:28;5.72;;;2.47;;
21326;SDS011;10822;51.532;6.770;2023-02-28T08:48:54;5.03;;;2.47;;
21326;SDS011;10822;51.532;6.770;2023-02-28T08:51:20;5.40;;;2.70;;
21326;SDS011;10822;51.532;6.770;2023-02-28T08:53:50;4.85;;;2.25;;
21326;SDS011;10822;51.532;6.770;2023-02-28T08:56:17;4.95;;;2.10;;
21326;SDS011;10822;51.532;6.770;2023-02-28T08:58:43;3.17;;;2.13;;
21326;SDS011;10822;51.532;6.770;2023-02-28T09:01:13;4.68;;;2.58;;
21326;SDS011;10822;51.532;6.770;2023-02-28T09:03:41;3.05;;;2.10;;
21326;SDS011;10822;51.532;6.770;2023-02-28T09:06:07;3.20;;;1.92;;
21326;SDS011;10822;51.532;6.770;2023-02-28T09:08:34;2.35;;;1.60;;
21326;SDS011;10822;51.532;6.770;2023-02-28T09:11:02;9.48;;;2.05;;
21326;SDS011;10822;51.532;6.770;2023-02-28T09:13:28;3.90;;;2.03;;
21326;SDS011;10822;51.532;6.770;2023-02-28T09:15:56;3.33;;;1.65;;
21326;SDS011;10822;51.532;6.770;2023-02-28T09:18:23;2.38;;;1.80;;
21326;SDS011;10822;51.532;6.770;2023-02-28T09:20:48;3.58;;;1.83;;
21326;SDS011;10822;51.532;6.770;2023-02-28T09:23:15;4.13;;;1.85;;
21326;SDS011;10822;51.532;6.770;2023-02-28T09:25:45;3.47;;;1.80;;
21326;SDS011;10822;51.532;6.770;2023-02-28T09:28:11;2.67;;;1.73;;
21326;SDS011;10822;51.532;6.770;2023-02-28T09:30:37;3.35;;;1.60;;
21326;SDS011;10822;51.532;6.770;2023-02-28T09:33:03;2.65;;;1.58;;
21326;SDS011;10822;51.532;6.770;2023-02-28T09:35:29;1.73;;;1.30;;
21326;SDS011;10822;51.532;6.770;2023-02-28T09:37:55;1.92;;;1.45;;
21326;SDS011;10822;51.532;6.770;2023-02-28T09:40:23;2.28;;;1.40;;
21326;SDS011;10822;51.532;6.770;2023-02-28T09:42:51;2.15;;;1.25;;
21326;SDS011;10822;51.532;6.770;2023-02-28T09:45:33;1.35;;;1.20;;
21326;SDS011;10822;51.532;6.770;2023-02-28T09:48:02;1.67;;;1.20;;
21326;SDS011;10822;51.532;6.770;2023-02-28T09:50:30;1.90;;;1.30;;
21326;SDS011;10822;51.532;6.770;2023-02-28T09:52:58;3.60;;;1.70;;
21326;SDS011;10822;51.532;6.770;2023-02-28T09:55:29;2.15;;;1.52;;
21326;SDS011;10822;51.532;6.770;2023-02-28T09:57:56;1.80;;;1.25;;
21326;SDS011;10822;51.532;6.770;2023-02-28T10:00:28;1.38;;;1.02;;
21326;SDS011;10822;51.532;6.770;2023-02-28T10:03:00;2.13;;;1.00;;
21326;SDS011;10822;51.532;6.770;2023-02-28T10:05:37;2.55;;;1.10;;
21326;SDS011;10822;51.532;6.770;2023-02-28T10:08:18;1.33;;;1.00;;
21326;SDS011;10822;51.532;6.770;2023-02-28T10:10:50;2.72;;;1.27;;
21326;SDS011;10822;51.532;6.770;2023-02-28T10:13:35;1.23;;;1.02;;
21326;SDS011;10822;51.532;6.770;2023-02-28T10:16:11;1.40;;;1.00;;
21326;SDS011;10822;51.532;6.770;2023-02-28T10:18:56;1.60;;;1.17;;
21326;SDS011;10822;51.532;6.770;2023-02-28T10:21:31;1.30;;;1.02;;
21326;SDS011;10822;51.532;6.770;2023-02-28T10:24:02;2.10;;;1.40;;
21326;SDS011;10822;51.532;6.770;2023-02-28T10:26:29;2.05;;;1.20;;
21326;SDS011;10822;51.532;6.770;2023-02-28T10:28:55;1.40;;;1.27;;
21326;SDS011;10822;51.532;6.770;2023-02-28T10:31:21;2.03;;;1.10;;
21326;SDS011;10822;51.532;6.770;2023-02-28T10:33:47;2.17;;;1.60;;
21326;SDS011;10822;51.532;6.770;2023-02-28T10:36:15;2.28;;;1.70;;
21326;SDS011;10822;51.532;6.770;2023-02-28T10:38:41;2.33;;;1.52;;
21326;SDS011;10822;51.532;6.770;2023-02-28T10:41:09;2.65;;;1.40;;
21326;SDS011;10822;51.532;6.770;2023-02-28T10:43:35;2.22;;;1.15;;
21326;SDS011;10822;51.532;6.770;2023-02-28T10:46:04;1.55;;;1.17;;
21326;SDS011;10822;51.532;6.770;2023-02-28T10:49:05;2.33;;;1.10;;
21326;SDS011;10822;51.532;6.770;2023-02-28T10:51:22;3.10;;;1.53;;
21326;SDS011;10822;51.532;6.770;2023-02-28T10:53:49;2.15;;;1.38;;
21326;SDS011;10822;51.532;6.770;2023-02-28T10:56:20;2.42;;;1.48;;
21326;SDS011;10822;51.532;6.770;2023-02-28T10:58:57;1.70;;;1.20;;
21326;SDS011;10822;51.532;6.770;2023-02-28T11:01:25;3.53;;;1.50;;
21326;SDS011;10822;51.532;6.770;2023-02-28T11:03:51;1.65;;;1.38;;
21326;SDS011;10822;51.532;6.770;2023-02-28T11:06:21;2.65;;;1.88;;
21326;SDS011;10822;51.532;6.770;2023-02-28T11:08:55;2.92;;;2.10;;
21326;SDS011;10822;51.532;6.770;2023-02-28T11:11:22;2.33;;;1.70;;
21326;SDS011;10822;51.532;6.770;2023-02-28T11:13:50;5.03;;;2.40;;
21326;SDS011;10822;51.532;6.770;2023-02-28T11:16:17;2.47;;;1.55;;
21326;SDS011;10822;51.532;6.770;2023-02-28T11:18:46;3.05;;;1.50;;
21326;SDS011;10822;51.532;6.770;2023-02-28T11:23:52;2.28;;;1.25;;
21326;SDS011;10822;51.532;6.770;2023-02-28T11:29:09;4.45;;;2.53;;
21326;SDS011;10822;51.532;6.770;2023-02-28T11:31:36;3.30;;;1.58;;
21326;SDS011;10822;51.532;6.770;2023-02-28T11:34:07;2.80;;;1.50;;
21326;SDS011;10822;51.532;6.770;2023-02-28T11:36:47;2.50;;;1.20;;
21326;SDS011;10822;51.532;6.770;2023-02-28T11:39:13;2.05;;;1.00;;
21326;SDS011;10822;51.532;6.770;2023-02-28T11:41:48;2.88;;;1.30;;
21326;SDS011;10822;51.532;6.770;2023-02-28T11:46:47;2.28;;;1.30;;
21326;SDS011;10822;51.532;6.770;2023-02-28T11:51:48;4.38;;;1.77;;
21326;SDS011;10822;51.532;6.770;2023-02-28T11:56:57;2.97;;;1.30;;
21326;SDS011;10822;51.532;6.770;2023-02-28T11:59:35;1.55;;;1.00;;
21326;SDS011;10822;51.532;6.770;2023-02-28T12:10:14;1.95;;;1.27;;
21326;SDS011;10822;51.532;6.770;2023-02-28T12:12:48;2.00;;;1.40;;
21326;SDS011;10822;51.532;6.770;2023-02-28T12:17:59;2.10;;;1.33;;
21326;SDS011;10822;51.532;6.770;2023-02-28T12:20:46;3.20;;;1.48;;
21326;SDS011;10822;51.532;6.770;2023-02-28T12:28:16;2.00;;;1.30;;
21326;SDS011;10822;51.532;6.770;2023-02-28T12:30:51;1.80;;;1.25;;
21326;SDS011;10822;51.532;6.770;2023-02-28T12:33:20;2.38;;;1.48;;
21326;SDS011;10822;51.532;6.770;2023-02-28T12:35:53;3.03;;;1.52;;
21326;SDS011;10822;51.532;6.770;2023-02-28T12:43:20;2.75;;;1.60;;
21326;SDS011;10822;51.532;6.770;2023-02-28T12:45:50;4.85;;;1.52;;
21326;SDS011;10822;51.532;6.770;2023-02-28T12:48:21;2.00;;;1.40;;
21326;SDS011;10822;51.532;6.770;2023-02-28T12:50:49;2.78;;;1.55;;
21326;SDS011;10822;51.532;6.770;2023-02-28T12:53:31;1.85;;;1.40;;
21326;SDS011;10822;51.532;6.770;2023-02-28T12:58:40;2.78;;;1.60;;
21326;SDS011;10822;51.532;6.770;2023-02-28T13:06:20;1.48;;;1.30;;
21326;SDS011;10822;51.532;6.770;2023-02-28T13:08:59;3.42;;;1.70;;
21326;SDS011;10822;51.532;6.770;2023-02-28T13:11:27;5.95;;;1.90;;
21326;SDS011;10822;51.532;6.770;2023-02-28T13:14:01;2.63;;;1.70;;
21326;SDS011;10822;51.532;6.770;2023-02-28T13:16:28;4.13;;;1.60;;
21326;SDS011;10822;51.532;6.770;2023-02-28T13:19:15;2.13;;;1.60;;
21326;SDS011;10822;51.532;6.770;2023-02-28T13:21:43;1.90;;;1.52;;
21326;SDS011;10822;51.532;6.770;2023-02-28T13:24:10;1.52;;;1.40;;
21326;SDS011;10822;51.532;6.770;2023-02-28T13:32:18;3.65;;;1.70;;
21326;SDS011;10822;51.532;6.770;2023-02-28T13:34:27;6.28;;;2.05;;
21326;SDS011;10822;51.532;6.770;2023-02-28T13:37:20;2.00;;;1.50;;
21326;SDS011;10822;51.532;6.770;2023-02-28T13:42:22;2.67;;;1.67;;
21326;SDS011;10822;51.532;6.770;2023-02-28T13:47:41;2.83;;;1.80;;
21326;SDS011;10822;51.532;6.770;2023-02-28T13:55:24;1.75;;;1.30;;
21326;SDS011;10822;51.532;6.770;2023-02-28T14:05:43;2.85;;;1.48;;
21326;SDS011;10822;51.532;6.770;2023-02-28T14:08:42;1.90;;;1.50;;
21326;SDS011;10822;51.532;6.770;2023-02-28T14:11:03;3.25;;;1.60;;
21326;SDS011;10822;51.532;6.770;2023-02-28T14:13:38;3.00;;;1.70;;
21326;SDS011;10822;51.532;6.770;2023-02-28T14:16:09;1.67;;;1.30;;
21326;SDS011;10822;51.532;6.770;2023-02-28T14:18:37;3.50;;;1.58;;
21326;SDS011;10822;51.532;6.770;2023-02-28T14:21:09;3.58;;;1.30;;
21326;SDS011;10822;51.532;6.770;2023-02-28T14:29:14;2.78;;;1.50;;
21326;SDS011;10822;51.532;6.770;2023-02-28T14:31:51;1.52;;;1.10;;
21326;SDS011;10822;51.532;6.770;2023-02-28T14:37:05;2.08;;;1.50;;
21326;SDS011;10822;51.532;6.770;2023-02-28T14:39:32;2.42;;;1.52;;
21326;SDS011;10822;51.532;6.770;2023-02-28T14:41:59;1.85;;;1.38;;
21326;SDS011;10822;51.532;6.770;2023-02-28T14:44:29;2.50;;;1.75;;
21326;SDS011;10822;51.532;6.770;2023-02-28T14:46:56;2.90;;;1.30;;
21326;SDS011;10822;51.532;6.770;2023-02-28T14:49:27;2.05;;;1.60;;
21326;SDS011;10822;51.532;6.770;2023-02-28T14:54:29;2.83;;;1.60;;
21326;SDS011;10822;51.532;6.770;2023-02-28T14:56:55;2.33;;;1.75;;
21326;SDS011;10822;51.532;6.770;2023-02-28T14:59:23;1.98;;;1.52;;
21326;SDS011;10822;51.532;6.770;2023-02-28T15:01:49;2.58;;;1.80;;
21326;SDS011;10822;51.532;6.770;2023-02-28T15:04:20;1.63;;;1.52;;
21326;SDS011;10822;51.532;6.770;2023-02-28T15:07:06;2.28;;;1.60;;
21326;SDS011;10822;51.532;6.770;2023-02-28T15:09:32;2.38;;;1.60;;
21326;SDS011;10822;51.532;6.770;2023-02-28T15:11:58;3.30;;;1.88;;
21326;SDS011;10822;51.532;6.770;2023-02-28T15:14:24;2.47;;;1.90;;
21326;SDS011;10822;51.532;6.770;2023-02-28T15:16:55;2.08;;;1.48;;
21326;SDS011;10822;51.532;6.770;2023-02-28T15:19:23;3.35;;;1.60;;
21326;SDS011;10822;51.532;6.770;2023-02-28T15:21:52;2.35;;;1.50;;
21326;SDS011;10822;51.532;6.770;2023-02-28T15:24:29;2.55;;;1.88;;
21326;SDS011;10822;51.532;6.770;2023-02-28T15:26:58;2.55;;;1.90;;
21326;SDS011;10822;51.532;6.770;2023-02-28T15:29:25;3.53;;;2.00;;
21326;SDS011;10822;51.532;6.770;2023-02-28T15:32:05;2.42;;;1.60;;
21326;SDS011;10822;51.532;6.770;2023-02-28T15:34:38;2.53;;;1.85;;
21326;SDS011;10822;51.532;6.770;2023-02-28T15:39:49;1.92;;;1.50;;
21326;SDS011;10822;51.532;6.770;2023-02-28T15:42:19;2.42;;;1.63;;
21326;SDS011;10822;51.532;6.770;2023-02-28T15:44:46;2.28;;;1.60;;
21326;SDS011;10822;51.532;6.770;2023-02-28T15:47:24;2.60;;;1.60;;
21326;SDS011;10822;51.532;6.770;2023-02-28T15:49:52;2.33;;;1.50;;
21326;SDS011;10822;51.532;6.770;2023-02-28T15:52:19;2.28;;;1.80;;
21326;SDS011;10822;51.532;6.770;2023-02-28T15:54:47;2.38;;;1.60;;
21326;SDS011;10822;51.532;6.770;2023-02-28T15:57:15;2.30;;;1.80;;
21326;SDS011;10822;51.532;6.770;2023-02-28T15:59:48;1.95;;;1.45;;
21326;SDS011;10822;51.532;6.770;2023-02-28T16:07:27;2.45;;;1.65;;
21326;SDS011;10822;51.532;6.770;2023-02-28T16:09:53;4.22;;;3.00;;
21326;SDS011;10822;51.532;6.770;2023-02-28T16:12:20;3.50;;;2.17;;
21326;SDS011;10822;51.532;6.770;2023-02-28T16:14:47;2.42;;;1.67;;
21326;SDS011;10822;51.532;6.770;2023-02-28T16:17:20;2.95;;;1.75;;
21326;SDS011;10822;51.532;6.770;2023-02-28T16:19:46;2.67;;;1.60;;
21326;SDS011;10822;51.532;6.770;2023-02-28T16:22:12;3.08;;;1.73;;
21326;SDS011;10822;51.532;6.770;2023-02-28T16:24:38;2.55;;;1.90;;
21326;SDS011;10822;51.532;6.770;2023-02-28T16:27:05;3.47;;;1.70;;
21326;SDS011;10822;51.532;6.770;2023-02-28T16:29:32;2.50;;;1.70;;
21326;SDS011;10822;51.532;6.770;2023-02-28T16:31:59;2.42;;;2.00;;
21326;SDS011;10822;51.532;6.770;2023-02-28T16:34:26;4.00;;;2.00;;
21326;SDS011;10822;51.532;6.770;2023-02-28T16:36:52;3.30;;;1.90;;
21326;SDS011;10822;51.532;6.770;2023-02-28T16:39:18;4.70;;;1.98;;
21326;SDS011;10822;51.532;6.770;2023-02-28T16:41:47;3.72;;;2.20;;
21326;SDS011;10822;51.532;6.770;2023-02-28T16:44:20;2.75;;;1.80;;
21326;SDS011;10822;51.532;6.770;2023-02-28T16:46:48;1.80;;;1.70;;
21326;SDS011;10822;51.532;6.770;2023-02-28T16:49:14;2.42;;;1.70;;
21326;SDS011;10822;51.532;6.770;2023-02-28T16:51:40;2.92;;;2.10;;